createdAt,value
2016-12-07T00:00:37.094Z,1029.92
2016-12-07T00:01:37.112Z,1029.93
2016-12-07T00:02:37.128Z,1029.94
2016-12-07T00:03:37.145Z,1029.95
2016-12-07T00:04:37.158Z,1029.92
2016-12-07T00:05:37.175Z,1029.94
2016-12-07T00:07:37.209Z,1029.9
2016-12-07T00:08:37.222Z,1029.94
2016-12-07T00:09:37.238Z,1029.91
2016-12-07T00:10:37.255Z,1029.92
2016-12-07T00:11:37.272Z,1029.95
2016-12-07T00:12:37.289Z,1029.94
2016-12-07T00:13:37.305Z,1029.95
2016-12-07T00:14:37.319Z,1029.97
2016-12-07T00:15:37.337Z,1029.98
2016-12-07T00:16:37.351Z,1030.01
2016-12-07T00:17:37.370Z,1030.04
2016-12-07T00:18:37.384Z,1030.03
2016-12-07T00:19:37.402Z,1030.04
2016-12-07T00:20:37.419Z,1030.03
2016-12-07T00:21:37.437Z,1030.01
2016-12-07T00:23:37.465Z,1029.97
2016-12-07T00:24:37.482Z,1029.97
2016-12-07T00:25:37.499Z,1029.94
2016-12-07T00:26:37.516Z,1029.99
2016-12-07T00:27:37.531Z,1029.98
2016-12-07T00:28:37.549Z,1030
2016-12-07T00:29:37.564Z,1029.99
2016-12-07T00:30:37.579Z,1030.05
2016-12-07T00:31:37.595Z,1030.02
2016-12-07T00:32:37.613Z,1030
2016-12-07T00:33:37.628Z,1029.98
2016-12-07T00:34:37.646Z,1029.94
2016-12-07T00:35:37.663Z,1029.91
2016-12-07T00:36:37.680Z,1029.91
2016-12-07T00:37:37.695Z,1029.91
2016-12-07T00:39:37.728Z,1029.92
2016-12-07T00:40:37.743Z,1029.93
2016-12-07T00:41:37.758Z,1029.99
2016-12-07T00:42:37.775Z,1030.02
2016-12-07T00:43:37.793Z,1030.03
2016-12-07T00:44:37.808Z,1030.07
2016-12-07T00:45:37.823Z,1030.05
2016-12-07T00:46:37.842Z,1030.07
2016-12-07T00:47:37.858Z,1030.05
2016-12-07T00:48:37.873Z,1030.04
2016-12-07T00:49:37.890Z,1030.02
2016-12-07T00:50:37.904Z,1030.04
2016-12-07T00:51:37.923Z,1030.02
2016-12-07T00:52:37.940Z,1030
2016-12-07T00:54:37.971Z,1030.02
2016-12-07T00:55:37.988Z,1030.02
2016-12-07T00:56:38.003Z,1030.04
2016-12-07T00:57:38.020Z,1030.02
2016-12-07T00:58:38.039Z,1030.03
2016-12-07T00:59:38.052Z,1030
2016-12-07T01:00:38.068Z,1030.02
2016-12-07T01:01:38.087Z,1030.03
2016-12-07T01:02:38.100Z,1030.02
2016-12-07T01:03:38.117Z,1030.03
2016-12-07T01:04:38.134Z,1030.01
2016-12-07T01:05:38.152Z,1030
2016-12-07T01:06:38.168Z,1030.02
2016-12-07T01:07:38.184Z,1030.1
2016-12-07T01:08:38.199Z,1030.08
2016-12-07T01:09:38.217Z,1030.06
2016-12-07T01:10:38.233Z,1030.07
2016-12-07T01:11:38.247Z,1030.12
2016-12-07T01:12:38.264Z,1030.12
2016-12-07T01:13:38.279Z,1030.11
2016-12-07T01:14:38.296Z,1030.06
2016-12-07T01:15:38.314Z,1030.12
2016-12-07T01:16:38.329Z,1030.1
2016-12-07T01:17:38.344Z,1030.11
2016-12-07T01:18:38.363Z,1030.1
2016-12-07T01:19:38.377Z,1030.1
2016-12-07T01:20:38.396Z,1030.12
2016-12-07T01:21:38.411Z,1030.11
2016-12-07T01:22:38.426Z,1030.07
2016-12-07T01:23:38.443Z,1030.07
2016-12-07T01:24:38.458Z,1030.04
2016-12-07T01:26:38.493Z,1030
2016-12-07T01:27:38.509Z,1030.02
2016-12-07T01:28:38.522Z,1030.05
2016-12-07T01:29:38.541Z,1030.07
2016-12-07T01:30:38.557Z,1030.1
2016-12-07T01:31:38.574Z,1030.11
2016-12-07T01:32:38.587Z,1030.1
2016-12-07T01:33:38.606Z,1030.14
2016-12-07T01:34:38.623Z,1030.14
2016-12-07T01:35:38.636Z,1030.08
2016-12-07T01:36:38.653Z,1030.16
2016-12-07T01:37:38.669Z,1030.17
2016-12-07T01:38:38.685Z,1030.17
2016-12-07T01:39:38.701Z,1030.19
2016-12-07T01:40:38.717Z,1030.2
2016-12-07T01:42:38.750Z,1030.21
2016-12-07T01:43:38.765Z,1030.22
2016-12-07T01:44:38.781Z,1030.16
2016-12-07T01:45:38.800Z,1030.16
2016-12-07T01:46:38.815Z,1030.13
2016-12-07T01:47:38.831Z,1030.14
2016-12-07T01:48:38.845Z,1030.15
2016-12-07T01:49:38.863Z,1030.13
2016-12-07T01:50:38.876Z,1030.1
2016-12-07T01:51:38.893Z,1030.13
2016-12-07T01:52:38.908Z,1030.09
2016-12-07T01:53:38.927Z,1030.1
2016-12-07T01:54:38.940Z,1030.11
2016-12-07T01:55:38.956Z,1030.14
2016-12-07T01:56:38.972Z,1030.14
2016-12-07T01:58:39.004Z,1030.16
2016-12-07T01:59:39.020Z,1030.12
2016-12-07T02:00:39.038Z,1030.12
2016-12-07T02:01:39.054Z,1030.06
2016-12-07T02:02:39.068Z,1030.06
2016-12-07T02:03:39.086Z,1030.03
2016-12-07T02:04:39.102Z,1030.05
2016-12-07T02:05:39.117Z,1030.07
2016-12-07T02:06:39.133Z,1030.12
2016-12-07T02:07:39.150Z,1030.11
2016-12-07T02:08:39.163Z,1030.11
2016-12-07T02:09:39.181Z,1030.15
2016-12-07T02:10:39.197Z,1030.17
2016-12-07T02:11:39.214Z,1030.17
2016-12-07T02:12:39.229Z,1030.18
2016-12-07T02:14:39.259Z,1030.2
2016-12-07T02:15:39.275Z,1030.22
2016-12-07T02:16:39.291Z,1030.23
2016-12-07T02:17:39.307Z,1030.22
2016-12-07T02:18:39.325Z,1030.22
2016-12-07T02:19:39.340Z,1030.22
2016-12-07T02:20:39.355Z,1030.24
2016-12-07T02:21:39.373Z,1030.19
2016-12-07T02:22:39.387Z,1030.2
2016-12-07T02:23:39.404Z,1030.2
2016-12-07T02:24:39.420Z,1030.16
2016-12-07T02:25:39.438Z,1030.17
2016-12-07T02:26:39.452Z,1030.13
2016-12-07T02:27:39.471Z,1030.15
2016-12-07T02:29:39.501Z,1030.09
2016-12-07T02:30:39.519Z,1030.11
2016-12-07T02:31:39.535Z,1030.09
2016-12-07T02:32:39.549Z,1030.02
2016-12-07T02:33:39.566Z,1030.04
2016-12-07T02:34:39.581Z,1030.05
2016-12-07T02:35:39.597Z,1030.08
2016-12-07T02:36:39.663Z,1030.01
2016-12-07T02:37:39.629Z,1030.01
2016-12-07T02:38:39.648Z,1030
2016-12-07T02:39:39.662Z,1030
2016-12-07T02:40:39.778Z,1030.03
2016-12-07T02:41:39.696Z,1029.95
2016-12-07T02:42:39.710Z,1029.93
2016-12-07T02:43:39.726Z,1029.93
2016-12-07T02:44:39.745Z,1029.96
2016-12-07T02:45:39.758Z,1029.97
2016-12-07T02:46:39.775Z,1029.98
2016-12-07T02:47:39.793Z,1029.96
2016-12-07T02:48:39.808Z,1030
2016-12-07T02:49:39.823Z,1030.01
2016-12-07T02:50:39.841Z,1029.99
2016-12-07T02:51:39.857Z,1030.01
2016-12-07T02:52:39.873Z,1030.03
2016-12-07T02:53:39.888Z,1030.02
2016-12-07T02:54:39.905Z,1029.97
2016-12-07T02:55:39.920Z,1029.93
2016-12-07T02:56:39.937Z,1029.95
2016-12-07T02:57:39.952Z,1029.95
2016-12-07T02:58:39.968Z,1029.98
2016-12-07T02:59:39.984Z,1029.96
2016-12-07T03:01:40.019Z,1029.95
2016-12-07T03:02:40.033Z,1029.95
2016-12-07T03:03:40.051Z,1029.96
2016-12-07T03:04:40.067Z,1029.97
2016-12-07T03:05:40.083Z,1029.96
2016-12-07T03:06:40.100Z,1029.93
2016-12-07T03:07:40.113Z,1029.94
2016-12-07T03:08:40.131Z,1029.87
2016-12-07T03:09:40.146Z,1029.89
2016-12-07T03:10:40.161Z,1029.86
2016-12-07T03:11:40.183Z,1029.84
2016-12-07T03:12:40.194Z,1029.82
2016-12-07T03:13:40.210Z,1029.8
2016-12-07T03:14:40.226Z,1029.74
2016-12-07T03:15:40.242Z,1029.77
2016-12-07T03:17:40.277Z,1029.78
2016-12-07T03:18:40.290Z,1029.73
2016-12-07T03:19:40.307Z,1029.75
2016-12-07T03:20:40.326Z,1029.71
2016-12-07T03:21:40.338Z,1029.73
2016-12-07T03:22:40.358Z,1029.71
2016-12-07T03:23:40.371Z,1029.71
2016-12-07T03:24:40.390Z,1029.71
2016-12-07T03:25:40.403Z,1029.68
2016-12-07T03:26:40.421Z,1029.62
2016-12-07T03:27:40.439Z,1029.58
2016-12-07T03:28:40.455Z,1029.62
2016-12-07T03:29:40.470Z,1029.65
2016-12-07T03:30:40.485Z,1029.62
2016-12-07T03:31:40.501Z,1029.64
2016-12-07T03:33:40.535Z,1029.65
2016-12-07T03:34:40.551Z,1029.63
2016-12-07T03:35:40.568Z,1029.61
2016-12-07T03:36:40.582Z,1029.64
2016-12-07T03:37:40.597Z,1029.58
2016-12-07T03:39:12.744Z,1029.6
2016-12-07T03:40:12.608Z,1029.6
2016-12-07T03:41:12.624Z,1029.57
2016-12-07T03:42:12.642Z,1029.59
2016-12-07T03:43:12.657Z,1029.53
2016-12-07T03:44:12.673Z,1029.51
2016-12-07T03:45:12.690Z,1029.48
2016-12-07T03:46:12.705Z,1029.49
2016-12-07T03:47:12.722Z,1029.45
2016-12-07T03:49:12.754Z,1029.39
2016-12-07T03:50:12.771Z,1029.37
2016-12-07T03:51:12.786Z,1029.32
2016-12-07T03:52:12.801Z,1029.37
2016-12-07T03:53:12.918Z,1029.29
2016-12-07T03:54:12.833Z,1029.29
2016-12-07T03:55:12.851Z,1029.28
2016-12-07T03:56:12.867Z,1029.33
2016-12-07T03:57:12.884Z,1029.31
2016-12-07T03:58:12.899Z,1029.34
2016-12-07T03:59:12.914Z,1029.32
2016-12-07T04:00:12.931Z,1029.31
2016-12-07T04:01:12.948Z,1029.32
2016-12-07T04:02:12.965Z,1029.3
2016-12-07T04:04:12.996Z,1029.32
2016-12-07T04:05:13.012Z,1029.33
2016-12-07T04:06:13.029Z,1029.34
2016-12-07T04:07:13.045Z,1029.31
2016-12-07T04:08:13.061Z,1029.31
2016-12-07T04:09:13.077Z,1029.29
2016-12-07T04:10:13.094Z,1029.27
2016-12-07T04:11:13.111Z,1029.23
2016-12-07T04:12:13.125Z,1029.24
2016-12-07T04:13:13.141Z,1029.22
2016-12-07T04:14:13.157Z,1029.18
2016-12-07T04:15:13.174Z,1029.19
2016-12-07T04:16:13.188Z,1029.16
2016-12-07T04:17:13.206Z,1029.14
2016-12-07T04:18:13.222Z,1029.18
2016-12-07T04:19:13.238Z,1029.17
2016-12-07T04:20:13.254Z,1029.16
2016-12-07T04:21:13.370Z,1029.15
2016-12-07T04:22:13.286Z,1029.19
2016-12-07T04:23:13.301Z,1029.17
2016-12-07T04:24:13.320Z,1029.14
2016-12-07T04:25:13.335Z,1029.1
2016-12-07T04:26:13.351Z,1029.1
2016-12-07T04:27:13.365Z,1029.07
2016-12-07T04:28:13.382Z,1029.11
2016-12-07T04:29:13.398Z,1029.08
2016-12-07T04:30:13.415Z,1029.1
2016-12-07T04:31:13.431Z,1029.11
2016-12-07T04:32:13.447Z,1029.13
2016-12-07T04:33:13.464Z,1029.14
2016-12-07T04:34:13.478Z,1029.15
2016-12-07T04:36:13.512Z,1029.11
2016-12-07T04:37:13.528Z,1029.08
2016-12-07T04:38:13.543Z,1029.08
2016-12-07T04:39:13.559Z,1029.05
2016-12-07T04:40:13.576Z,1029.04
2016-12-07T04:41:13.594Z,1029.03
2016-12-07T04:42:13.607Z,1028.99
2016-12-07T04:43:13.623Z,1028.99
2016-12-07T04:44:13.642Z,1029.02
2016-12-07T04:45:13.654Z,1029.05
2016-12-07T04:46:13.671Z,1028.99
2016-12-07T04:47:13.687Z,1029.04
2016-12-07T04:48:13.703Z,1029.04
2016-12-07T04:49:13.719Z,1029.03
2016-12-07T04:50:13.736Z,1029.07
2016-12-07T04:52:13.768Z,1029.02
2016-12-07T04:53:13.787Z,1029.04
2016-12-07T04:54:13.799Z,1029.02
2016-12-07T04:55:14.116Z,1028.99
2016-12-07T04:56:13.831Z,1028.99
2016-12-07T04:57:13.847Z,1028.94
2016-12-07T04:58:13.863Z,1028.99
2016-12-07T04:59:13.880Z,1028.95
2016-12-07T05:00:13.895Z,1028.92
2016-12-07T05:01:13.911Z,1028.94
2016-12-07T05:02:13.927Z,1028.91
2016-12-07T05:03:13.944Z,1028.95
2016-12-07T05:04:13.958Z,1028.94
2016-12-07T05:05:13.974Z,1028.96
2016-12-07T05:06:13.992Z,1028.97
2016-12-07T05:08:14.022Z,1028.91
2016-12-07T05:09:14.038Z,1028.9
2016-12-07T05:10:14.054Z,1028.95
2016-12-07T05:11:14.071Z,1028.93
2016-12-07T05:12:14.087Z,1028.99
2016-12-07T05:13:14.102Z,1028.93
2016-12-07T05:14:14.118Z,1028.98
2016-12-07T05:15:14.184Z,1028.99
2016-12-07T05:16:14.149Z,1028.96
2016-12-07T05:17:14.216Z,1028.98
2016-12-07T05:18:14.181Z,1028.98
2016-12-07T05:19:14.197Z,1028.98
2016-12-07T05:20:14.214Z,1028.99
2016-12-07T05:21:14.229Z,1028.98
2016-12-07T05:22:14.245Z,1028.98
2016-12-07T05:24:14.277Z,1028.91
2016-12-07T05:25:14.294Z,1028.91
2016-12-07T05:26:14.308Z,1028.89
2016-12-07T05:27:14.325Z,1028.84
2016-12-07T05:28:14.342Z,1028.85
2016-12-07T05:29:14.356Z,1028.8
2016-12-07T05:30:14.375Z,1028.83
2016-12-07T05:31:14.389Z,1028.83
2016-12-07T05:32:14.404Z,1028.85
2016-12-07T05:33:14.421Z,1028.88
2016-12-07T05:34:14.435Z,1028.83
2016-12-07T05:35:14.453Z,1028.86
2016-12-07T05:36:14.468Z,1028.83
2016-12-07T05:37:14.484Z,1028.84
2016-12-07T05:39:14.518Z,1028.84
2016-12-07T05:40:14.532Z,1028.84
2016-12-07T05:41:14.566Z,1028.83
2016-12-07T05:42:14.564Z,1028.88
2016-12-07T05:43:14.581Z,1028.9
2016-12-07T05:44:14.597Z,1028.89
2016-12-07T05:45:14.612Z,1028.92
2016-12-07T05:46:14.629Z,1028.83
2016-12-07T05:47:14.644Z,1028.88
2016-12-07T05:48:14.660Z,1028.87
2016-12-07T05:49:14.676Z,1028.91
2016-12-07T05:50:14.692Z,1028.88
2016-12-07T05:51:14.708Z,1028.96
2016-12-07T05:52:14.724Z,1028.94
2016-12-07T05:53:14.741Z,1028.94
2016-12-07T05:54:14.757Z,1028.95
2016-12-07T05:55:14.772Z,1028.94
2016-12-07T05:56:14.788Z,1028.91
2016-12-07T05:57:14.804Z,1028.93
2016-12-07T05:58:14.819Z,1028.93
2016-12-07T05:59:14.836Z,1028.92
2016-12-07T06:00:14.851Z,1028.87
2016-12-07T06:01:14.867Z,1028.88
2016-12-07T06:02:14.883Z,1028.85
2016-12-07T06:03:14.901Z,1028.87
2016-12-07T06:04:14.916Z,1028.86
2016-12-07T06:05:14.932Z,1028.83
2016-12-07T06:06:14.947Z,1028.8
2016-12-07T06:07:14.962Z,1028.81
2016-12-07T06:08:14.979Z,1028.81
2016-12-07T06:09:14.995Z,1028.87
2016-12-07T06:11:15.027Z,1028.85
2016-12-07T06:12:15.043Z,1028.86
2016-12-07T06:13:15.057Z,1028.85
2016-12-07T06:14:15.074Z,1028.81
2016-12-07T06:15:15.090Z,1028.78
2016-12-07T06:16:15.107Z,1028.76
2016-12-07T06:17:15.121Z,1028.75
2016-12-07T06:18:15.136Z,1028.75
2016-12-07T06:19:15.153Z,1028.7
2016-12-07T06:20:15.169Z,1028.67
2016-12-07T06:21:15.185Z,1028.69
2016-12-07T06:22:15.201Z,1028.66
2016-12-07T06:23:15.216Z,1028.71
2016-12-07T06:24:15.232Z,1028.71
2016-12-07T06:25:15.249Z,1028.69
2016-12-07T06:27:15.282Z,1028.7
2016-12-07T06:28:15.296Z,1028.69
2016-12-07T06:29:15.313Z,1028.65
2016-12-07T06:30:15.328Z,1028.63
2016-12-07T06:31:15.343Z,1028.63
2016-12-07T06:32:15.360Z,1028.63
2016-12-07T06:33:15.376Z,1028.65
2016-12-07T06:34:15.391Z,1028.62
2016-12-07T06:35:15.406Z,1028.7
2016-12-07T06:36:15.422Z,1028.69
2016-12-07T06:37:15.442Z,1028.7
2016-12-07T06:38:15.454Z,1028.71
2016-12-07T06:39:15.470Z,1028.72
2016-12-07T06:40:15.486Z,1028.77
2016-12-07T06:41:15.501Z,1028.75
2016-12-07T06:43:15.533Z,1028.7
2016-12-07T06:44:15.558Z,1028.69
2016-12-07T06:45:15.565Z,1028.66
2016-12-07T06:46:15.583Z,1028.66
2016-12-07T06:47:15.596Z,1028.63
2016-12-07T06:48:15.613Z,1028.62
2016-12-07T06:49:15.630Z,1028.64
2016-12-07T06:50:15.643Z,1028.54
2016-12-07T06:51:15.660Z,1028.59
2016-12-07T06:52:15.676Z,1028.55
2016-12-07T06:53:15.691Z,1028.56
2016-12-07T06:54:15.707Z,1028.56
2016-12-07T06:55:15.724Z,1028.53
2016-12-07T06:56:15.739Z,1028.53
2016-12-07T06:57:15.754Z,1028.51
2016-12-07T06:59:15.785Z,1028.54
2016-12-07T07:00:15.804Z,1028.52
2016-12-07T07:01:15.816Z,1028.46
2016-12-07T07:02:15.852Z,1028.44
2016-12-07T07:03:15.850Z,1028.45
2016-12-07T07:04:15.864Z,1028.44
2016-12-07T07:05:15.882Z,1028.4
2016-12-07T07:06:15.896Z,1028.39
2016-12-07T07:07:15.914Z,1028.45
2016-12-07T07:08:15.927Z,1028.45
2016-12-07T07:09:15.945Z,1028.44
2016-12-07T07:10:15.961Z,1028.45
2016-12-07T07:11:15.977Z,1028.41
2016-12-07T07:12:15.993Z,1028.4
2016-12-07T07:14:16.023Z,1028.4
2016-12-07T07:15:16.040Z,1028.43
2016-12-07T07:16:16.056Z,1028.39
2016-12-07T07:17:16.070Z,1028.4
2016-12-07T07:18:16.086Z,1028.43
2016-12-07T07:19:16.101Z,1028.39
2016-12-07T07:20:16.119Z,1028.36
2016-12-07T07:21:16.133Z,1028.37
2016-12-07T07:22:16.150Z,1028.41
2016-12-07T07:23:16.164Z,1028.33
2016-12-07T07:24:16.180Z,1028.33
2016-12-07T07:25:16.196Z,1028.34
2016-12-07T07:26:16.211Z,1028.28
2016-12-07T07:27:16.229Z,1028.3
2016-12-07T07:28:16.245Z,1028.29
2016-12-07T07:29:16.260Z,1028.29
2016-12-07T07:30:16.276Z,1028.27
2016-12-07T07:31:16.290Z,1028.32
2016-12-07T07:32:16.308Z,1028.37
2016-12-07T07:33:16.326Z,1028.39
2016-12-07T07:34:16.339Z,1028.37
2016-12-07T07:35:16.356Z,1028.38
2016-12-07T07:36:16.371Z,1028.45
2016-12-07T07:37:16.384Z,1028.43
2016-12-07T07:38:16.400Z,1028.42
2016-12-07T07:39:16.418Z,1028.46
2016-12-07T07:40:16.432Z,1028.46
2016-12-07T07:41:16.447Z,1028.45
2016-12-07T07:42:16.463Z,1028.47
2016-12-07T07:43:16.479Z,1028.44
2016-12-07T07:44:16.494Z,1028.39
2016-12-07T07:46:16.526Z,1028.42
2016-12-07T07:47:16.542Z,1028.4
2016-12-07T07:48:16.559Z,1028.4
2016-12-07T07:49:16.575Z,1028.39
2016-12-07T07:50:16.591Z,1028.37
2016-12-07T07:51:16.605Z,1028.41
2016-12-07T07:52:16.622Z,1028.39
2016-12-07T07:53:16.639Z,1028.38
2016-12-07T07:54:16.652Z,1028.42
2016-12-07T07:55:16.667Z,1028.43
2016-12-07T07:56:16.683Z,1028.42
2016-12-07T07:57:16.699Z,1028.43
2016-12-07T07:58:16.720Z,1028.42
2016-12-07T07:59:16.730Z,1028.44
2016-12-07T08:00:16.748Z,1028.41
2016-12-07T08:02:16.778Z,1028.43
2016-12-07T08:03:16.796Z,1028.46
2016-12-07T08:04:16.811Z,1028.42
2016-12-07T08:05:16.825Z,1028.43
2016-12-07T08:06:16.840Z,1028.43
2016-12-07T08:07:16.858Z,1028.44
2016-12-07T08:08:16.872Z,1028.44
2016-12-07T08:09:16.892Z,1028.41
2016-12-07T08:10:16.905Z,1028.39
2016-12-07T08:11:16.921Z,1028.38
2016-12-07T08:12:16.935Z,1028.39
2016-12-07T08:13:16.951Z,1028.33
2016-12-07T08:14:16.969Z,1028.28
2016-12-07T08:15:16.985Z,1028.28
2016-12-07T08:16:17.001Z,1028.35
2016-12-07T08:18:17.030Z,1028.34
2016-12-07T08:19:17.046Z,1028.33
2016-12-07T08:20:17.062Z,1028.32
2016-12-07T08:21:17.079Z,1028.3
2016-12-07T08:22:17.095Z,1028.32
2016-12-07T08:23:17.111Z,1028.32
2016-12-07T08:24:17.125Z,1028.33
2016-12-07T08:25:17.143Z,1028.35
2016-12-07T08:26:17.157Z,1028.36
2016-12-07T08:27:17.173Z,1028.33
2016-12-07T08:28:17.188Z,1028.34
2016-12-07T08:29:17.205Z,1028.36
2016-12-07T08:30:17.220Z,1028.39
2016-12-07T08:31:17.237Z,1028.44
2016-12-07T08:32:17.254Z,1028.37
2016-12-07T08:34:17.286Z,1028.41
2016-12-07T08:35:17.302Z,1028.38
2016-12-07T08:36:17.316Z,1028.36
2016-12-07T08:37:17.333Z,1028.38
2016-12-07T08:38:17.350Z,1028.38
2016-12-07T08:39:17.363Z,1028.4
2016-12-07T08:40:17.380Z,1028.38
2016-12-07T08:41:17.398Z,1028.34
2016-12-07T08:42:17.413Z,1028.31
2016-12-07T08:43:17.429Z,1028.42
2016-12-07T08:44:17.445Z,1028.36
2016-12-07T08:45:17.460Z,1028.42
2016-12-07T08:46:17.476Z,1028.39
2016-12-07T08:47:17.493Z,1028.38
2016-12-07T08:49:17.526Z,1028.37
2016-12-07T08:50:17.543Z,1028.35
2016-12-07T08:51:17.557Z,1028.32
2016-12-07T08:52:17.575Z,1028.4
2016-12-07T08:53:17.590Z,1028.38
2016-12-07T08:54:17.605Z,1028.39
2016-12-07T08:55:17.622Z,1028.41
2016-12-07T08:56:17.640Z,1028.4
2016-12-07T08:57:17.654Z,1028.4
2016-12-07T08:58:17.670Z,1028.34
2016-12-07T08:59:17.688Z,1028.33
2016-12-07T09:00:17.705Z,1028.32
2016-12-07T09:01:17.718Z,1028.31
2016-12-07T09:02:17.735Z,1028.28
2016-12-07T09:03:17.777Z,1028.29
2016-12-07T09:04:17.771Z,1028.27
2016-12-07T09:05:17.785Z,1028.26
2016-12-07T09:06:17.801Z,1028.31
2016-12-07T09:07:17.817Z,1028.27
2016-12-07T09:08:17.833Z,1028.26
2016-12-07T09:09:17.849Z,1028.28
2016-12-07T09:10:17.867Z,1028.3
2016-12-07T09:11:17.884Z,1028.29
2016-12-07T09:12:17.899Z,1028.29
2016-12-07T09:13:17.916Z,1028.24
2016-12-07T09:14:17.932Z,1028.26
2016-12-07T09:15:17.948Z,1028.26
2016-12-07T09:16:17.966Z,1028.23
2016-12-07T09:17:17.982Z,1028.19
2016-12-07T09:18:17.999Z,1028.16
2016-12-07T09:19:18.015Z,1028.18
2016-12-07T09:21:18.048Z,1028.12
2016-12-07T09:22:18.064Z,1028.1
2016-12-07T09:23:18.079Z,1028.13
2016-12-07T09:24:18.096Z,1028.08
2016-12-07T09:25:18.115Z,1028.1
2016-12-07T09:26:18.132Z,1028.09
2016-12-07T09:27:18.148Z,1028.11
2016-12-07T09:28:18.164Z,1028.15
2016-12-07T09:29:18.182Z,1028.16
2016-12-07T09:30:18.197Z,1028.16
2016-12-07T09:31:18.216Z,1028.14
2016-12-07T09:32:18.231Z,1028.18
2016-12-07T09:33:18.248Z,1028.16
2016-12-07T09:34:18.264Z,1028.18
2016-12-07T09:35:18.295Z,1028.16
2016-12-07T09:37:18.318Z,1028.12
2016-12-07T09:38:18.331Z,1028.16
2016-12-07T09:39:18.348Z,1028.18
2016-12-07T09:40:18.368Z,1028.16
2016-12-07T09:41:18.384Z,1028.13
2016-12-07T09:42:18.399Z,1028.11
2016-12-07T09:43:18.417Z,1028.08
2016-12-07T09:44:18.434Z,1028.02
2016-12-07T09:45:18.450Z,1028.03
2016-12-07T09:46:18.467Z,1027.96
2016-12-07T09:47:18.484Z,1028.03
2016-12-07T09:48:18.504Z,1028.01
2016-12-07T09:49:18.520Z,1027.94
2016-12-07T09:50:18.535Z,1027.94
2016-12-07T09:51:18.552Z,1027.92
2016-12-07T09:53:18.587Z,1027.95
2016-12-07T09:54:18.603Z,1027.93
2016-12-07T09:55:18.620Z,1027.91
2016-12-07T09:56:18.636Z,1027.87
2016-12-07T09:57:18.655Z,1027.86
2016-12-07T09:58:18.670Z,1027.85
2016-12-07T09:59:18.687Z,1027.77
2016-12-07T10:00:18.705Z,1027.77
2016-12-07T10:01:18.723Z,1027.7
2016-12-07T10:02:18.738Z,1027.72
2016-12-07T10:03:18.756Z,1027.71
2016-12-07T10:04:18.771Z,1027.65
2016-12-07T10:05:18.789Z,1027.66
2016-12-07T10:06:18.805Z,1027.7
2016-12-07T10:07:18.822Z,1027.69
2016-12-07T10:09:18.856Z,1027.58
2016-12-07T10:10:18.875Z,1027.58
2016-12-07T10:11:18.891Z,1027.56
2016-12-07T10:12:18.906Z,1027.55
2016-12-07T10:13:18.925Z,1027.53
2016-12-07T10:14:18.942Z,1027.47
2016-12-07T10:15:18.959Z,1027.48
2016-12-07T10:16:18.975Z,1027.47
2016-12-07T10:17:18.991Z,1027.5
2016-12-07T10:18:19.007Z,1027.46
2016-12-07T10:19:19.027Z,1027.43
2016-12-07T10:20:19.044Z,1027.46
2016-12-07T10:21:19.061Z,1027.45
2016-12-07T10:22:19.079Z,1027.44
2016-12-07T10:24:19.113Z,1027.4
2016-12-07T10:25:19.127Z,1027.35
2016-12-07T10:26:19.144Z,1027.38
2016-12-07T10:27:19.164Z,1027.32
2016-12-07T10:28:19.181Z,1027.32
2016-12-07T10:29:19.195Z,1027.3
2016-12-07T10:30:19.212Z,1027.3
2016-12-07T10:31:19.231Z,1027.35
2016-12-07T10:32:19.246Z,1027.32
2016-12-07T10:33:19.264Z,1027.34
2016-12-07T10:34:19.280Z,1027.33
2016-12-07T10:35:19.300Z,1027.28
2016-12-07T10:36:19.316Z,1027.2
2016-12-07T10:37:19.331Z,1027.24
2016-12-07T10:38:19.350Z,1027.18
2016-12-07T10:39:19.368Z,1027.13
2016-12-07T10:40:19.384Z,1027.13
2016-12-07T10:41:19.401Z,1027.12
2016-12-07T10:42:19.417Z,1027.16
2016-12-07T10:43:19.435Z,1027.13
2016-12-07T10:44:19.453Z,1027.11
2016-12-07T10:45:19.467Z,1027.14
2016-12-07T10:46:19.485Z,1027.1
2016-12-07T10:47:19.501Z,1027.07
2016-12-07T10:48:19.519Z,1027.05
2016-12-07T10:49:19.538Z,1027
2016-12-07T10:50:19.553Z,1026.99
2016-12-07T10:51:19.720Z,1026.99
2016-12-07T10:52:19.589Z,1026.95
2016-12-07T10:53:19.605Z,1026.95
2016-12-07T10:54:19.621Z,1026.91
2016-12-07T10:56:19.656Z,1026.88
2016-12-07T10:57:19.673Z,1026.85
2016-12-07T10:58:19.689Z,1026.85
2016-12-07T10:59:19.707Z,1026.78
2016-12-07T11:00:19.727Z,1026.73
2016-12-07T11:01:19.744Z,1026.69
2016-12-07T11:02:19.758Z,1026.71
2016-12-07T11:03:19.775Z,1026.65
2016-12-07T11:04:19.793Z,1026.67
2016-12-07T11:05:19.811Z,1026.62
2016-12-07T11:06:19.826Z,1026.6
2016-12-07T11:07:19.846Z,1026.56
2016-12-07T11:08:19.863Z,1026.54
2016-12-07T11:09:19.880Z,1026.47
2016-12-07T11:10:19.897Z,1026.49
2016-12-07T11:12:19.932Z,1026.42
2016-12-07T11:13:19.996Z,1026.36
2016-12-07T11:14:19.963Z,1026.39
2016-12-07T11:15:19.987Z,1026.36
2016-12-07T11:16:19.997Z,1026.35
2016-12-07T11:17:20.017Z,1026.3
2016-12-07T11:18:20.032Z,1026.28
2016-12-07T11:19:20.055Z,1026.32
2016-12-07T11:20:20.066Z,1026.32
2016-12-07T11:21:20.083Z,1026.24
2016-12-07T11:22:20.100Z,1026.26
2016-12-07T11:23:20.120Z,1026.25
2016-12-07T11:24:20.138Z,1026.27
2016-12-07T11:25:20.153Z,1026.2
2016-12-07T11:26:20.169Z,1026.18
2016-12-07T11:28:20.205Z,1026.09
2016-12-07T11:29:20.220Z,1026.03
2016-12-07T11:30:20.239Z,1026.02
2016-12-07T11:31:20.265Z,1026
2016-12-07T11:32:20.271Z,1026.02
2016-12-07T11:33:20.295Z,1026.02
2016-12-07T11:34:20.306Z,1025.99
2016-12-07T11:35:20.322Z,1025.96
2016-12-07T11:36:20.340Z,1025.94
2016-12-07T11:37:20.357Z,1025.95
2016-12-07T11:38:20.375Z,1025.95
2016-12-07T11:39:20.399Z,1025.98
2016-12-07T11:40:20.408Z,1026.01
2016-12-07T11:41:20.428Z,1026.06
2016-12-07T11:42:20.444Z,1026.05
2016-12-07T11:44:20.481Z,1026.14
2016-12-07T11:45:20.496Z,1026.14
2016-12-07T11:46:20.511Z,1026.09
2016-12-07T11:47:20.528Z,1026.07
2016-12-07T11:48:20.547Z,1026.11
2016-12-07T11:49:20.562Z,1026.1
2016-12-07T11:50:20.582Z,1026.04
2016-12-07T11:51:20.597Z,1025.99
2016-12-07T11:52:20.615Z,1025.98
2016-12-07T11:53:20.631Z,1025.95
2016-12-07T11:54:20.651Z,1025.95
2016-12-07T11:55:20.667Z,1025.93
2016-12-07T11:56:20.684Z,1025.97
2016-12-07T11:57:20.703Z,1025.94
2016-12-07T11:59:20.737Z,1025.98
2016-12-07T12:00:20.753Z,1025.96
2016-12-07T12:01:20.773Z,1025.99
2016-12-07T12:02:20.788Z,1025.94
2016-12-07T12:03:20.808Z,1025.98
2016-12-07T12:04:20.825Z,1025.88
2016-12-07T12:05:20.846Z,1025.87
2016-12-07T12:06:20.860Z,1025.9
2016-12-07T12:07:20.877Z,1025.87
2016-12-07T12:08:20.895Z,1025.88
2016-12-07T12:09:20.913Z,1025.85
2016-12-07T12:10:20.930Z,1025.87
2016-12-07T12:11:20.947Z,1025.93
2016-12-07T12:12:20.967Z,1025.91
2016-12-07T12:13:20.983Z,1025.89
2016-12-07T12:14:20.999Z,1025.88
2016-12-07T12:15:21.017Z,1025.89
2016-12-07T12:16:21.034Z,1025.88
2016-12-07T12:17:21.051Z,1025.93
2016-12-07T12:18:21.069Z,1025.87
2016-12-07T12:19:21.087Z,1025.92
2016-12-07T12:20:21.105Z,1025.89
2016-12-07T12:21:21.121Z,1025.88
2016-12-07T12:22:21.140Z,1025.89
2016-12-07T12:23:21.155Z,1025.89
2016-12-07T12:24:21.173Z,1025.88
2016-12-07T12:25:21.191Z,1025.87
2016-12-07T12:26:21.210Z,1025.87
2016-12-07T12:27:21.225Z,1025.86
2016-12-07T12:28:21.246Z,1025.9
2016-12-07T12:29:21.260Z,1025.84
2016-12-07T12:31:21.298Z,1025.81
2016-12-07T12:32:21.316Z,1025.77
2016-12-07T12:33:21.333Z,1025.75
2016-12-07T12:34:21.349Z,1025.75
2016-12-07T12:35:21.369Z,1025.73
2016-12-07T12:36:21.385Z,1025.73
2016-12-07T12:37:21.405Z,1025.7
2016-12-07T12:38:21.422Z,1025.7
2016-12-07T12:39:21.441Z,1025.74
2016-12-07T12:40:21.458Z,1025.66
2016-12-07T12:41:21.476Z,1025.67
2016-12-07T12:42:21.492Z,1025.63
2016-12-07T12:43:21.512Z,1025.62
2016-12-07T12:44:21.530Z,1025.61
2016-12-07T12:45:21.546Z,1025.68
2016-12-07T12:47:21.584Z,1025.63
2016-12-07T12:48:21.599Z,1025.66
2016-12-07T12:49:21.617Z,1025.66
2016-12-07T12:50:21.635Z,1025.59